createdAt,value
2024-01-21T00:00:55.225Z,24.92
2024-01-21T00:01:55.160Z,24.89
2024-01-21T00:02:55.374Z,24.91
2024-01-21T00:03:55.410Z,24.86
2024-01-21T00:04:55.214Z,24.86
2024-01-21T00:05:55.260Z,24.88
2024-01-21T00:06:55.263Z,24.88
2024-01-21T00:07:55.292Z,24.91
2024-01-21T00:08:55.303Z,24.89
2024-01-21T00:09:55.291Z,24.86
2024-01-21T00:10:55.307Z,24.89
2024-01-21T00:11:55.360Z,24.86
2024-01-21T00:12:55.432Z,24.85
2024-01-21T00:13:55.402Z,24.88
2024-01-21T00:14:55.420Z,24.85
2024-01-21T00:15:55.413Z,24.86
2024-01-21T00:16:55.423Z,24.85
2024-01-21T00:17:55.561Z,24.86
2024-01-21T00:18:55.503Z,24.88
2024-01-21T00:19:55.543Z,24.86
2024-01-21T00:20:55.521Z,24.86
2024-01-21T00:21:55.539Z,24.86
2024-01-21T00:22:55.501Z,24.88
2024-01-21T00:23:55.683Z,24.88
2024-01-21T00:24:55.571Z,24.88
2024-01-21T00:25:55.607Z,24.86
2024-01-21T00:26:55.722Z,24.84
2024-01-21T00:27:55.609Z,24.88
2024-01-21T00:28:55.702Z,24.89
2024-01-21T00:29:55.660Z,24.86
2024-01-21T00:30:55.734Z,24.89
2024-01-21T00:31:56.265Z,24.88
2024-01-21T00:32:55.730Z,24.88
2024-01-21T00:33:55.862Z,24.88
2024-01-21T00:34:55.717Z,24.88
2024-01-21T00:35:55.754Z,24.88
2024-01-21T00:36:55.805Z,24.89
2024-01-21T00:37:55.785Z,24.88
2024-01-21T00:38:55.815Z,24.92
2024-01-21T00:39:55.863Z,24.92
2024-01-21T00:40:55.818Z,24.91
2024-01-21T00:42:01.886Z,24.92
2024-01-21T00:42:57.041Z,24.92
2024-01-21T00:43:55.961Z,24.95
2024-01-21T00:44:55.878Z,24.92
2024-01-21T00:45:55.942Z,24.92
2024-01-21T00:46:55.925Z,24.92
2024-01-21T00:47:56.002Z,24.95
2024-01-21T00:48:55.990Z,24.94
2024-01-21T00:49:55.933Z,24.92
2024-01-21T00:50:55.871Z,24.94
2024-01-21T00:51:55.827Z,24.96
2024-01-21T00:52:56.062Z,24.94
2024-01-21T00:53:55.872Z,24.95
2024-01-21T00:54:55.940Z,24.96
2024-01-21T00:55:55.998Z,24.96
2024-01-21T00:56:55.912Z,24.96
2024-01-21T00:57:56.072Z,24.96
2024-01-21T00:58:55.952Z,24.95
2024-01-21T00:59:56.055Z,24.98
2024-01-21T01:00:56.108Z,24.98
2024-01-21T01:01:55.999Z,24.95
2024-01-21T01:02:55.882Z,24.99
2024-01-21T01:03:55.944Z,24.99
2024-01-21T01:04:55.904Z,24.99
2024-01-21T01:05:55.862Z,24.98
2024-01-21T01:06:55.894Z,25.01
2024-01-21T01:07:56.070Z,25.02
2024-01-21T01:08:55.949Z,24.99
2024-01-21T01:09:55.945Z,25.04
2024-01-21T01:10:55.918Z,25.02
2024-01-21T01:11:55.908Z,25.02
2024-01-21T01:12:56.100Z,25.02
2024-01-21T01:13:56.033Z,25.04
2024-01-21T01:14:55.930Z,25.04
2024-01-21T01:15:55.919Z,25.05
2024-01-21T01:16:55.925Z,25.04
2024-01-21T01:17:56.046Z,25.05
2024-01-21T01:18:56.065Z,25.05
2024-01-21T01:19:56.148Z,25.05
2024-01-21T01:20:55.897Z,25.06
2024-01-21T01:21:56.061Z,25.09
2024-01-21T01:22:55.917Z,25.08
2024-01-21T01:23:55.893Z,25.08
2024-01-21T01:24:55.929Z,25.09
2024-01-21T01:25:55.934Z,25.09
2024-01-21T01:26:55.915Z,25.09
2024-01-21T01:27:55.955Z,25.09
2024-01-21T01:28:55.979Z,25.12
2024-01-21T01:29:55.894Z,25.11
2024-01-21T01:30:56.054Z,25.14
2024-01-21T01:31:55.956Z,25.14
2024-01-21T01:32:56.025Z,25.14
2024-01-21T01:33:56.111Z,25.15
2024-01-21T01:34:56.077Z,25.15
2024-01-21T01:35:55.982Z,25.15
2024-01-21T01:36:56.022Z,25.16
2024-01-21T01:37:55.976Z,25.15
2024-01-21T01:38:55.936Z,25.15
2024-01-21T01:39:56.037Z,25.16
2024-01-21T01:40:56.132Z,25.15
2024-01-21T01:41:56.148Z,25.16
2024-01-21T01:42:57.085Z,25.16
2024-01-21T01:43:56.136Z,25.18
2024-01-21T01:44:56.182Z,25.19
2024-01-21T01:45:56.194Z,25.19
2024-01-21T01:46:56.148Z,25.21
2024-01-21T01:47:56.175Z,25.19
2024-01-21T01:48:56.227Z,25.21
2024-01-21T01:49:56.166Z,25.25
2024-01-21T01:50:56.193Z,25.22
2024-01-21T01:51:56.304Z,25.23
2024-01-21T01:52:56.536Z,25.21
2024-01-21T01:53:56.364Z,25.23
2024-01-21T01:54:56.372Z,25.22
2024-01-21T01:55:56.411Z,25.25
2024-01-21T01:56:56.673Z,25.25
2024-01-21T01:57:56.553Z,25.25
2024-01-21T01:58:56.526Z,25.28
2024-01-21T01:59:56.645Z,25.25
2024-01-21T02:00:56.717Z,25.26
2024-01-21T02:01:56.852Z,25.28
2024-01-21T02:02:56.676Z,25.26
2024-01-21T02:03:56.777Z,25.29
2024-01-21T02:04:56.818Z,25.29
2024-01-21T02:05:56.886Z,25.28
2024-01-21T02:06:57.002Z,25.30
2024-01-21T02:07:56.992Z,25.30
2024-01-21T02:08:57.025Z,25.30
2024-01-21T02:09:57.361Z,25.32
2024-01-21T02:10:57.149Z,25.32
2024-01-21T02:11:57.271Z,25.32
2024-01-21T02:12:57.328Z,25.35
2024-01-21T02:13:57.363Z,25.33
2024-01-21T02:14:57.414Z,25.33
2024-01-21T02:15:57.494Z,25.36
2024-01-21T02:16:57.576Z,25.39
2024-01-21T02:17:57.777Z,25.36
2024-01-21T02:18:57.798Z,25.39
2024-01-21T02:19:57.825Z,25.38
2024-01-21T02:20:57.862Z,25.39
2024-01-21T02:21:57.895Z,25.38
2024-01-21T02:22:57.927Z,25.40
2024-01-21T02:23:58.153Z,25.40
2024-01-21T02:24:58.199Z,25.43
2024-01-21T02:25:58.305Z,25.40
2024-01-21T02:26:58.197Z,25.42
2024-01-21T02:27:58.323Z,25.43
2024-01-21T02:28:58.381Z,25.43
2024-01-21T02:29:58.441Z,25.45
2024-01-21T02:30:58.548Z,25.48
2024-01-21T02:31:58.583Z,25.46
2024-01-21T02:32:58.623Z,25.46
2024-01-21T02:33:58.777Z,25.48
2024-01-21T02:34:58.748Z,25.48
2024-01-21T02:35:58.810Z,25.46
2024-01-21T02:36:58.863Z,25.48
2024-01-21T02:37:58.979Z,25.50
2024-01-21T02:38:59.062Z,25.48
2024-01-21T02:39:59.089Z,25.50
2024-01-21T02:40:59.176Z,25.52
2024-01-21T02:41:59.200Z,25.52
2024-01-21T02:42:59.374Z,25.52
2024-01-21T02:43:59.420Z,25.53
2024-01-21T02:44:59.427Z,25.53
2024-01-21T02:45:59.618Z,25.54
2024-01-21T02:46:59.687Z,25.54
2024-01-21T02:47:59.598Z,25.56
2024-01-21T02:48:59.717Z,25.56
2024-01-21T02:49:59.700Z,25.56
2024-01-21T02:50:59.943Z,25.58
2024-01-21T02:51:59.774Z,25.59
2024-01-21T02:52:59.850Z,25.56
2024-01-21T02:53:59.977Z,25.59
2024-01-21T02:55:00.032Z,25.59
2024-01-21T02:56:00.114Z,25.59
2024-01-21T02:57:00.117Z,25.60
2024-01-21T02:58:00.118Z,25.60
2024-01-21T02:59:00.168Z,25.60
2024-01-21T03:00:00.319Z,25.60
2024-01-21T03:01:00.418Z,25.62
2024-01-21T03:02:00.312Z,25.63
2024-01-21T03:03:00.842Z,25.63
2024-01-21T03:04:00.497Z,25.62
2024-01-21T03:05:00.571Z,25.63
2024-01-21T03:06:00.626Z,25.62
2024-01-21T03:07:00.596Z,25.63
2024-01-21T03:08:00.677Z,25.62
2024-01-21T03:09:00.696Z,25.62
2024-01-21T03:10:00.842Z,25.60
2024-01-21T03:11:00.930Z,25.60
2024-01-21T03:12:00.895Z,25.60
2024-01-21T03:13:00.946Z,25.62
2024-01-21T03:14:00.952Z,25.62
2024-01-21T03:15:01.047Z,25.63
2024-01-21T03:16:01.169Z,25.63
2024-01-21T03:17:01.120Z,25.60
2024-01-21T03:18:01.272Z,25.62
2024-01-21T03:19:01.274Z,25.65
2024-01-21T03:20:01.495Z,25.63
2024-01-21T03:21:01.417Z,25.63
2024-01-21T03:22:01.401Z,25.65
2024-01-21T03:23:01.472Z,25.65
2024-01-21T03:24:01.505Z,25.68
2024-01-21T03:25:01.673Z,25.66
2024-01-21T03:26:01.624Z,25.63
2024-01-21T03:27:01.688Z,25.65
2024-01-21T03:28:01.938Z,25.66
2024-01-21T03:29:02.076Z,25.68
2024-01-21T03:30:02.035Z,25.69
2024-01-21T03:31:01.964Z,25.66
2024-01-21T03:32:01.984Z,25.65
2024-01-21T03:33:02.073Z,25.69
2024-01-21T03:34:02.162Z,25.70
2024-01-21T03:35:02.090Z,25.69
2024-01-21T03:36:02.097Z,25.69
2024-01-21T03:37:02.182Z,25.69
2024-01-21T03:38:02.229Z,25.72
2024-01-21T03:39:02.451Z,25.68
2024-01-21T03:40:02.380Z,25.69
2024-01-21T03:41:02.279Z,25.70
2024-01-21T03:42:02.437Z,25.69
2024-01-21T03:43:02.462Z,25.70
2024-01-21T03:44:02.464Z,25.70
2024-01-21T03:45:02.597Z,25.72
2024-01-21T03:46:02.588Z,25.72
2024-01-21T03:47:02.596Z,25.75
2024-01-21T03:48:02.758Z,25.72
2024-01-21T03:49:02.810Z,25.72
2024-01-21T03:50:02.750Z,25.75
2024-01-21T03:51:02.757Z,25.73
2024-01-21T03:52:02.844Z,25.75
2024-01-21T03:53:02.850Z,25.73
2024-01-21T03:54:02.896Z,25.75
2024-01-21T03:55:03.100Z,25.73
2024-01-21T03:56:02.974Z,25.75
2024-01-21T03:57:03.070Z,25.73
2024-01-21T03:58:03.069Z,25.75
2024-01-21T03:59:03.129Z,25.77
2024-01-21T04:00:03.312Z,25.76
2024-01-21T04:01:03.444Z,25.80
2024-01-21T04:02:03.279Z,25.77
2024-01-21T04:03:03.303Z,25.79
2024-01-21T04:04:03.350Z,25.77
2024-01-21T04:05:03.483Z,25.80
2024-01-21T04:06:03.302Z,25.80
2024-01-21T04:07:03.356Z,25.81
2024-01-21T04:08:03.396Z,25.79
2024-01-21T04:09:03.404Z,25.83
2024-01-21T04:10:03.487Z,25.80
2024-01-21T04:11:03.531Z,25.81
2024-01-21T04:12:03.536Z,25.81
2024-01-21T04:13:03.587Z,25.83
2024-01-21T04:14:03.604Z,25.84
2024-01-21T04:15:03.653Z,25.83
2024-01-21T04:16:03.654Z,25.84
2024-01-21T04:17:03.713Z,25.86
2024-01-21T04:18:03.793Z,25.84
2024-01-21T04:19:04.056Z,25.84
2024-01-21T04:20:04.136Z,25.86
2024-01-21T04:21:03.878Z,25.84
2024-01-21T04:22:03.890Z,25.86
2024-01-21T04:23:03.874Z,25.84
2024-01-21T04:24:03.963Z,25.84
2024-01-21T04:25:11.256Z,25.83
2024-01-21T04:26:11.158Z,25.83
2024-01-21T04:27:11.215Z,25.87
2024-01-21T04:28:11.176Z,25.87
2024-01-21T04:29:11.168Z,25.87
2024-01-21T04:30:11.255Z,25.89
2024-01-21T04:31:18.603Z,25.84
2024-01-21T04:32:18.448Z,25.86
2024-01-21T04:33:18.630Z,25.86
2024-01-21T04:34:18.526Z,25.86
2024-01-21T04:35:18.505Z,25.89
2024-01-21T04:36:18.493Z,25.89
2024-01-21T04:37:18.495Z,25.91
2024-01-21T04:38:18.507Z,25.90
2024-01-21T04:39:18.597Z,25.90
2024-01-21T04:40:18.522Z,25.91
2024-01-21T04:41:18.517Z,25.93
2024-01-21T04:42:18.539Z,25.93
2024-01-21T04:43:18.477Z,25.91
2024-01-21T04:44:18.514Z,25.96
2024-01-21T04:45:18.586Z,25.94
2024-01-21T04:46:18.596Z,25.97
2024-01-21T04:47:18.577Z,25.96
2024-01-21T04:48:18.622Z,25.97
2024-01-21T04:49:18.670Z,25.97
2024-01-21T04:50:18.504Z,25.94
2024-01-21T04:51:18.502Z,25.99
2024-01-21T04:52:18.495Z,25.94
2024-01-21T04:53:18.505Z,25.99
2024-01-21T04:54:18.555Z,25.96
2024-01-21T04:55:18.526Z,25.93
2024-01-21T04:56:18.518Z,25.99
2024-01-21T04:57:18.515Z,26.00
2024-01-21T04:58:18.762Z,26.00
2024-01-21T04:59:18.510Z,26.00
2024-01-21T05:00:18.673Z,26.00
2024-01-21T05:01:18.544Z,26.00
2024-01-21T05:02:18.507Z,26.00
2024-01-21T05:03:18.667Z,26.01
2024-01-21T05:04:18.656Z,26.01
2024-01-21T05:05:18.516Z,25.99
2024-01-21T05:06:18.633Z,25.99
2024-01-21T05:07:18.514Z,25.99
2024-01-21T05:08:18.546Z,26.00
2024-01-21T05:09:18.614Z,26.03
2024-01-21T05:10:18.508Z,26.03
2024-01-21T05:11:18.543Z,26.03
2024-01-21T05:12:18.567Z,26.03
2024-01-21T05:13:19.189Z,26.05
2024-01-21T05:14:18.538Z,26.04
2024-01-21T05:15:18.597Z,26.04
2024-01-21T05:16:18.615Z,26.05
2024-01-21T05:17:18.577Z,26.05
2024-01-21T05:18:18.590Z,26.05
2024-01-21T05:19:18.580Z,26.07
2024-01-21T05:20:18.587Z,26.07
2024-01-21T05:21:18.592Z,26.07
2024-01-21T05:22:18.599Z,26.08
2024-01-21T05:23:18.576Z,26.08
2024-01-21T05:24:18.644Z,26.10
2024-01-21T05:25:18.561Z,26.10
2024-01-21T05:26:18.584Z,26.10
2024-01-21T05:27:18.605Z,26.08
2024-01-21T05:28:18.888Z,26.08
2024-01-21T05:29:18.673Z,26.07
2024-01-21T05:30:18.684Z,26.10
2024-01-21T05:31:18.563Z,26.13
2024-01-21T05:32:18.606Z,26.14
2024-01-21T05:33:18.581Z,26.16
2024-01-21T05:34:18.620Z,26.10
2024-01-21T05:35:18.613Z,26.13
2024-01-21T05:36:18.598Z,26.14
2024-01-21T05:37:18.720Z,26.13
2024-01-21T05:38:18.664Z,26.14
2024-01-21T05:39:18.631Z,26.16
2024-01-21T05:40:18.620Z,26.16
2024-01-21T05:41:18.598Z,26.14
2024-01-21T05:42:18.719Z,26.13
2024-01-21T05:43:18.581Z,26.16
2024-01-21T05:44:18.590Z,26.16
2024-01-21T05:45:18.627Z,26.14
2024-01-21T05:46:18.725Z,26.14
2024-01-21T05:47:18.611Z,26.16
2024-01-21T05:48:19.097Z,26.17
2024-01-21T05:49:18.779Z,26.17
2024-01-21T05:50:18.700Z,26.17
2024-01-21T05:51:18.645Z,26.17
2024-01-21T05:52:18.640Z,26.19
2024-01-21T05:53:18.660Z,26.17
2024-01-21T05:54:18.651Z,26.21
2024-01-21T05:55:18.624Z,26.19
2024-01-21T05:56:18.619Z,26.20
2024-01-21T05:57:18.649Z,26.21
2024-01-21T05:58:18.655Z,26.20
2024-01-21T05:59:18.936Z,26.21
2024-01-21T06:00:18.711Z,26.21
2024-01-21T06:01:18.738Z,26.23
2024-01-21T06:02:18.770Z,26.21
2024-01-21T06:03:18.755Z,26.21
2024-01-21T06:04:18.687Z,26.21
2024-01-21T06:05:18.815Z,26.24
2024-01-21T06:06:18.907Z,26.21
2024-01-21T06:07:18.904Z,26.21
2024-01-21T06:08:18.823Z,26.23
2024-01-21T06:09:18.991Z,26.23
2024-01-21T06:10:19.246Z,26.23
2024-01-21T06:11:18.978Z,26.26
2024-01-21T06:12:19.022Z,26.26
2024-01-21T06:13:19.121Z,26.26
2024-01-21T06:14:19.106Z,26.28
2024-01-21T06:15:19.189Z,26.27
2024-01-21T06:16:19.226Z,26.28
2024-01-21T06:17:19.224Z,26.26
2024-01-21T06:18:19.334Z,26.28
2024-01-21T06:19:19.413Z,26.30
2024-01-21T06:20:19.349Z,26.28
2024-01-21T06:21:19.457Z,26.27
2024-01-21T06:22:19.512Z,26.30
2024-01-21T06:23:19.580Z,26.33
2024-01-21T06:24:19.604Z,26.31
2024-01-21T06:25:19.638Z,26.33
2024-01-21T06:26:19.708Z,26.33
2024-01-21T06:27:19.829Z,26.31
2024-01-21T06:28:19.881Z,26.33
2024-01-21T06:29:20.020Z,26.33
2024-01-21T06:30:20.054Z,26.34
2024-01-21T06:31:20.118Z,26.33
2024-01-21T06:32:20.148Z,26.34
2024-01-21T06:33:20.272Z,26.31
2024-01-21T06:34:20.325Z,26.33
2024-01-21T06:35:20.334Z,26.34
2024-01-21T06:36:20.644Z,26.34
2024-01-21T06:37:20.665Z,26.33
2024-01-21T06:38:20.557Z,26.35
2024-01-21T06:39:20.643Z,26.34
2024-01-21T06:40:20.682Z,26.34
2024-01-21T06:41:20.774Z,26.35
2024-01-21T06:42:20.920Z,26.33
2024-01-21T06:43:20.984Z,26.34
2024-01-21T06:44:21.013Z,26.35
2024-01-21T06:45:21.057Z,26.35
2024-01-21T06:46:21.175Z,26.38
2024-01-21T06:47:21.337Z,26.37
2024-01-21T06:48:21.375Z,26.35
2024-01-21T06:49:21.445Z,26.40
2024-01-21T06:50:21.400Z,26.41
2024-01-21T06:51:21.557Z,26.41
2024-01-21T06:52:21.502Z,26.41
2024-01-21T06:53:21.674Z,26.38
2024-01-21T06:54:21.694Z,26.40
2024-01-21T06:55:21.730Z,26.40
2024-01-21T06:56:21.809Z,26.43
2024-01-21T06:57:21.955Z,26.43
2024-01-21T06:58:21.952Z,26.41
2024-01-21T06:59:22.020Z,26.43
2024-01-21T07:00:22.489Z,26.43
2024-01-21T07:01:22.290Z,26.45
2024-01-21T07:02:22.247Z,26.44
2024-01-21T07:03:22.538Z,26.44
2024-01-21T07:04:22.481Z,26.45
2024-01-21T07:05:22.728Z,26.47
2024-01-21T07:06:22.574Z,26.48
2024-01-21T07:07:22.657Z,26.47
2024-01-21T07:08:22.598Z,26.47
2024-01-21T07:09:22.780Z,26.47
2024-01-21T07:10:22.816Z,26.48
2024-01-21T07:11:22.868Z,26.48
2024-01-21T07:12:22.918Z,26.48
2024-01-21T07:13:22.904Z,26.50
2024-01-21T07:14:22.959Z,26.50
2024-01-21T07:15:23.093Z,26.48
2024-01-21T07:16:23.069Z,26.51
2024-01-21T07:17:23.113Z,26.54
2024-01-21T07:18:23.274Z,26.54
2024-01-21T07:19:23.344Z,26.55
2024-01-21T07:20:23.289Z,26.54
2024-01-21T07:21:23.388Z,26.54
2024-01-21T07:22:23.519Z,26.54
2024-01-21T07:23:23.514Z,26.54
2024-01-21T07:24:23.552Z,26.56
2024-01-21T07:25:23.638Z,26.55
2024-01-21T07:26:23.640Z,26.56
2024-01-21T07:27:23.789Z,26.55
2024-01-21T07:28:23.827Z,26.55
2024-01-21T07:29:23.816Z,26.58
2024-01-21T07:30:24.064Z,26.56
2024-01-21T07:31:23.959Z,26.58
2024-01-21T07:32:24.022Z,26.59
2024-01-21T07:33:24.153Z,26.61
2024-01-21T07:34:24.216Z,26.59
2024-01-21T07:35:24.157Z,26.61
2024-01-21T07:36:24.202Z,26.62
2024-01-21T07:37:24.232Z,26.62
2024-01-21T07:38:24.284Z,26.61
2024-01-21T07:39:26.060Z,26.62
2024-01-21T07:40:24.367Z,26.62
2024-01-21T07:41:24.469Z,26.65
2024-01-21T07:42:24.513Z,26.65
2024-01-21T07:43:24.513Z,26.67
2024-01-21T07:44:24.540Z,26.67
2024-01-21T07:45:26.141Z,26.67
2024-01-21T07:46:24.601Z,26.65
2024-01-21T07:47:24.676Z,26.70
2024-01-21T07:48:24.647Z,26.70
2024-01-21T07:49:24.623Z,26.68
2024-01-21T07:50:24.626Z,26.70
2024-01-21T07:51:24.628Z,26.68
2024-01-21T07:52:24.598Z,26.70
2024-01-21T07:53:24.591Z,26.71
2024-01-21T07:54:24.652Z,26.70
2024-01-21T07:55:24.636Z,26.73
2024-01-21T07:56:24.617Z,26.73
2024-01-21T07:57:24.666Z,26.71
2024-01-21T07:58:24.638Z,26.74
2024-01-21T07:59:24.663Z,26.73
2024-01-21T08:00:24.720Z,26.71
2024-01-21T08:01:24.725Z,26.73
2024-01-21T08:02:24.664Z,26.75
2024-01-21T08:03:24.703Z,26.77
2024-01-21T08:04:24.632Z,26.79
2024-01-21T08:05:24.746Z,26.77
2024-01-21T08:06:24.778Z,26.78
2024-01-21T08:07:24.645Z,26.79
2024-01-21T08:08:24.689Z,26.78
2024-01-21T08:09:26.146Z,26.79
2024-01-21T08:10:24.804Z,26.79
2024-01-21T08:11:24.606Z,26.81
2024-01-21T08:12:24.638Z,26.82
2024-01-21T08:13:24.628Z,26.82
2024-01-21T08:14:24.706Z,26.82
2024-01-21T08:15:24.663Z,26.82
2024-01-21T08:16:24.646Z,26.84
2024-01-21T08:17:24.664Z,26.82
2024-01-21T08:18:25.487Z,26.84
2024-01-21T08:19:24.705Z,26.86
2024-01-21T08:20:24.628Z,26.89
2024-01-21T08:21:24.765Z,26.88
2024-01-21T08:22:24.682Z,26.88
2024-01-21T08:23:24.796Z,26.89
2024-01-21T08:24:24.688Z,26.88
2024-01-21T08:25:24.778Z,26.86
2024-01-21T08:26:24.724Z,26.91
2024-01-21T08:27:24.770Z,26.92
2024-01-21T08:28:24.742Z,26.91
2024-01-21T08:29:24.844Z,26.91
2024-01-21T08:30:24.890Z,26.92
2024-01-21T08:31:24.894Z,26.92
2024-01-21T08:32:25.033Z,26.94
2024-01-21T08:33:25.153Z,26.96
2024-01-21T08:34:25.944Z,26.99
2024-01-21T08:35:25.043Z,27.02
2024-01-21T08:36:25.078Z,27.01
2024-01-21T08:37:25.130Z,27.05
2024-01-21T08:38:25.161Z,27.05
2024-01-21T08:39:25.250Z,27.05
2024-01-21T08:40:25.203Z,27.06
2024-01-21T08:41:25.240Z,27.08
2024-01-21T08:42:25.601Z,27.10
2024-01-21T08:43:25.295Z,27.12
2024-01-21T08:44:25.403Z,27.12
2024-01-21T08:45:25.385Z,27.12
2024-01-21T08:46:25.433Z,27.15
2024-01-21T08:47:25.444Z,27.18
2024-01-21T08:48:25.668Z,27.18
2024-01-21T08:49:25.482Z,27.21
2024-01-21T08:50:25.608Z,27.22
2024-01-21T08:51:25.618Z,27.22
2024-01-21T08:52:25.444Z,27.24
2024-01-21T08:53:25.484Z,27.26
2024-01-21T08:54:25.814Z,27.26
2024-01-21T08:55:25.522Z,27.25
2024-01-21T08:56:25.536Z,27.30
2024-01-21T08:57:25.523Z,27.28
2024-01-21T08:58:25.561Z,27.29
2024-01-21T08:59:25.619Z,27.32
2024-01-21T09:00:25.627Z,27.30
2024-01-21T09:01:25.665Z,27.33
2024-01-21T09:02:25.566Z,27.36
2024-01-21T09:03:25.701Z,27.36
2024-01-21T09:04:25.836Z,27.36
2024-01-21T09:05:25.628Z,27.40
2024-01-21T09:06:25.707Z,27.40
2024-01-21T09:07:25.604Z,27.40
2024-01-21T09:08:25.569Z,27.39
2024-01-21T09:09:25.685Z,27.40
2024-01-21T09:10:25.601Z,27.43
2024-01-21T09:11:25.721Z,27.42
2024-01-21T09:12:25.747Z,27.45
2024-01-21T09:13:25.700Z,27.45
2024-01-21T09:14:25.682Z,27.48
2024-01-21T09:15:25.756Z,27.49
2024-01-21T09:16:25.846Z,27.50
2024-01-21T09:17:25.888Z,27.49
2024-01-21T09:18:26.116Z,27.52
2024-01-21T09:19:26.123Z,27.52
2024-01-21T09:20:25.957Z,27.53
2024-01-21T09:21:32.841Z,27.53
2024-01-21T09:22:27.256Z,27.56
2024-01-21T09:23:26.311Z,27.57
2024-01-21T09:24:26.182Z,27.59
2024-01-21T09:25:26.040Z,27.62
2024-01-21T09:26:26.045Z,27.62
2024-01-21T09:27:26.273Z,27.63
2024-01-21T09:28:26.051Z,27.64
2024-01-21T09:29:26.062Z,27.67
2024-01-21T09:30:26.194Z,27.66
2024-01-21T09:31:26.298Z,27.69
2024-01-21T09:32:26.316Z,27.70
2024-01-21T09:33:26.548Z,27.72
2024-01-21T09:34:26.535Z,27.72
2024-01-21T09:35:26.560Z,27.76
2024-01-21T09:36:26.536Z,27.74
2024-01-21T09:37:29.593Z,27.79
2024-01-21T09:38:26.649Z,27.77
2024-01-21T09:39:26.606Z,27.80
2024-01-21T09:40:26.539Z,27.80
2024-01-21T09:41:26.569Z,27.82
2024-01-21T09:42:26.617Z,27.82
2024-01-21T09:43:26.523Z,27.83
2024-01-21T09:44:26.630Z,27.84
2024-01-21T09:45:26.763Z,27.84
2024-01-21T09:46:26.604Z,27.84
2024-01-21T09:47:26.586Z,27.86
2024-01-21T09:48:26.661Z,27.89
2024-01-21T09:49:26.808Z,27.90
2024-01-21T09:50:28.939Z,27.90
2024-01-21T09:51:26.612Z,27.92
2024-01-21T09:52:26.617Z,27.93
2024-01-21T09:53:26.624Z,27.93
2024-01-21T09:54:26.823Z,27.93
2024-01-21T09:55:26.665Z,27.94
2024-01-21T09:56:26.559Z,27.94
2024-01-21T09:57:26.602Z,27.97
2024-01-21T09:58:26.589Z,27.97
2024-01-21T09:59:26.621Z,27.99
2024-01-21T10:00:26.644Z,28.00
2024-01-21T10:01:26.606Z,27.99
2024-01-21T10:02:26.634Z,27.99
2024-01-21T10:03:26.740Z,28.00
2024-01-21T10:04:26.751Z,28.01
2024-01-21T10:05:26.665Z,28.04
2024-01-21T10:06:26.701Z,28.03
2024-01-21T10:07:26.592Z,28.03
2024-01-21T10:08:26.636Z,28.04
2024-01-21T10:09:26.725Z,28.04
2024-01-21T10:10:26.632Z,28.05
2024-01-21T10:11:26.631Z,28.07
2024-01-21T10:12:26.684Z,28.08
2024-01-21T10:13:26.623Z,28.08
2024-01-21T10:14:26.627Z,28.10
2024-01-21T10:15:26.664Z,28.14
2024-01-21T10:16:26.581Z,28.14
2024-01-21T10:17:26.646Z,28.14
2024-01-21T10:18:26.994Z,28.14
2024-01-21T10:19:26.736Z,28.17
2024-01-21T10:20:26.621Z,28.17
2024-01-21T10:21:26.725Z,28.20
2024-01-21T10:22:26.678Z,28.20
2024-01-21T10:23:26.770Z,28.18
2024-01-21T10:24:26.719Z,28.21
2024-01-21T10:25:26.671Z,28.23
2024-01-21T10:26:26.632Z,28.24
2024-01-21T10:27:26.738Z,28.27
2024-01-21T10:28:26.657Z,28.25
2024-01-21T10:29:26.692Z,28.27
2024-01-21T10:30:26.716Z,28.28
2024-01-21T10:31:26.619Z,28.31
2024-01-21T10:32:26.694Z,28.30
2024-01-21T10:33:26.742Z,28.31
2024-01-21T10:34:26.712Z,28.33
2024-01-21T10:35:26.695Z,28.35
2024-01-21T10:36:26.682Z,28.35
2024-01-21T10:37:26.708Z,28.38
2024-01-21T10:38:26.651Z,28.37
2024-01-21T10:39:26.778Z,28.37
2024-01-21T10:40:26.686Z,28.38
2024-01-21T10:41:26.716Z,28.40
2024-01-21T10:42:26.733Z,28.43
2024-01-21T10:43:26.763Z,28.43
2024-01-21T10:44:26.664Z,28.43
2024-01-21T10:45:26.883Z,28.44
2024-01-21T10:46:26.898Z,28.44
2024-01-21T10:47:26.856Z,28.45
2024-01-21T10:48:26.908Z,28.45
2024-01-21T10:49:26.782Z,28.50
2024-01-21T10:50:26.681Z,28.50
2024-01-21T10:51:26.708Z,28.50
2024-01-21T10:52:26.702Z,28.51
2024-01-21T10:53:26.699Z,28.52
2024-01-21T10:54:26.823Z,28.52
2024-01-21T10:55:26.678Z,28.57
2024-01-21T10:56:26.678Z,28.54
2024-01-21T10:57:26.776Z,28.59
2024-01-21T10:58:26.679Z,28.61
2024-01-21T10:59:26.723Z,28.59
2024-01-21T11:00:26.931Z,28.62
2024-01-21T11:01:27.057Z,28.64
2024-01-21T11:02:26.718Z,28.64
2024-01-21T11:03:27.127Z,28.65
2024-01-21T11:04:26.953Z,28.68
2024-01-21T11:05:29.903Z,28.68
2024-01-21T11:06:26.998Z,28.68
2024-01-21T11:07:26.963Z,28.69
2024-01-21T11:08:26.850Z,28.71
2024-01-21T11:09:26.917Z,28.72
2024-01-21T11:10:26.879Z,28.75
2024-01-21T11:11:26.891Z,28.77
2024-01-21T11:12:26.933Z,28.75
2024-01-21T11:13:26.909Z,28.79
2024-01-21T11:14:26.882Z,28.81
2024-01-21T11:15:26.924Z,28.79
2024-01-21T11:16:26.867Z,28.81
2024-01-21T11:17:26.922Z,28.82
2024-01-21T11:18:26.975Z,28.83
2024-01-21T11:19:27.985Z,28.85
2024-01-21T11:20:26.918Z,28.85
2024-01-21T11:21:26.992Z,28.87
2024-01-21T11:22:27.156Z,28.88
2024-01-21T11:23:26.953Z,28.92
2024-01-21T11:24:27.261Z,28.92
2024-01-21T11:25:26.879Z,28.89
2024-01-21T11:26:26.887Z,28.92
2024-01-21T11:27:27.074Z,28.94
2024-01-21T11:28:26.953Z,28.95
2024-01-21T11:29:27.062Z,28.97
2024-01-21T11:30:26.910Z,28.97
2024-01-21T11:31:26.896Z,28.95
2024-01-21T11:32:27.023Z,28.98
2024-01-21T11:33:27.149Z,28.98
2024-01-21T11:34:27.185Z,28.98
2024-01-21T11:35:26.945Z,28.99
2024-01-21T11:36:26.922Z,29.01
2024-01-21T11:37:27.037Z,29.02
2024-01-21T11:38:26.925Z,29.03
2024-01-21T11:39:26.939Z,29.05
2024-01-21T11:40:26.973Z,29.03
2024-01-21T11:41:26.942Z,29.02
2024-01-21T11:42:26.931Z,29.05
2024-01-21T11:43:26.890Z,29.06
2024-01-21T11:44:29.266Z,29.06
2024-01-21T11:45:26.997Z,29.05
2024-01-21T11:46:26.979Z,29.06
2024-01-21T11:47:26.925Z,29.09
2024-01-21T11:48:27.013Z,29.05
2024-01-21T11:49:26.980Z,29.09
2024-01-21T11:50:26.968Z,29.09
2024-01-21T11:51:26.937Z,29.11
2024-01-21T11:52:26.937Z,29.12
2024-01-21T11:53:26.966Z,29.11
2024-01-21T11:54:26.931Z,29.12
2024-01-21T11:55:26.918Z,29.12
2024-01-21T11:56:26.916Z,29.15
2024-01-21T11:57:27.039Z,29.12
2024-01-21T11:58:26.916Z,29.15
2024-01-21T11:59:26.878Z,29.13
2024-01-21T12:00:27.022Z,29.15
2024-01-21T12:01:27.020Z,29.15
2024-01-21T12:02:26.931Z,29.16
2024-01-21T12:03:26.966Z,29.18
2024-01-21T12:04:26.980Z,29.16
2024-01-21T12:05:26.946Z,29.18
2024-01-21T12:06:27.002Z,29.18
2024-01-21T12:07:27.201Z,29.19
2024-01-21T12:08:26.967Z,29.18
2024-01-21T12:09:26.988Z,29.19
2024-01-21T12:10:26.958Z,29.21
2024-01-21T12:11:26.933Z,29.18
2024-01-21T12:12:27.026Z,29.18
2024-01-21T12:13:26.946Z,29.18
2024-01-21T12:14:27.249Z,29.19
2024-01-21T12:15:27.004Z,29.21
2024-01-21T12:16:26.956Z,29.18
2024-01-21T12:17:27.095Z,29.22
2024-01-21T12:18:27.077Z,29.21
2024-01-21T12:19:27.188Z,29.23
2024-01-21T12:20:27.110Z,29.19
2024-01-21T12:21:27.052Z,29.21
2024-01-21T12:22:26.973Z,29.23
2024-01-21T12:23:26.941Z,29.22
2024-01-21T12:24:26.998Z,29.22
2024-01-21T12:25:27.144Z,29.25
2024-01-21T12:26:27.002Z,29.22
2024-01-21T12:27:27.021Z,29.25
2024-01-21T12:28:27.025Z,29.23
2024-01-21T12:29:26.977Z,29.21
2024-01-21T12:30:27.065Z,29.25
2024-01-21T12:31:27.195Z,29.23
2024-01-21T12:32:27.000Z,29.25
2024-01-21T12:33:27.108Z,29.23
2024-01-21T12:34:27.236Z,29.26
2024-01-21T12:35:27.144Z,29.26
2024-01-21T12:36:27.123Z,29.25
2024-01-21T12:37:27.005Z,29.25
2024-01-21T12:38:27.028Z,29.28
2024-01-21T12:39:27.160Z,29.25
2024-01-21T12:40:27.088Z,29.26
2024-01-21T12:41:27.063Z,29.25
2024-01-21T12:42:27.087Z,29.25
2024-01-21T12:43:27.177Z,29.26
2024-01-21T12:44:27.114Z,29.29
2024-01-21T12:45:27.238Z,29.29
2024-01-21T12:46:27.114Z,29.26
2024-01-21T12:47:27.251Z,29.29
2024-01-21T12:48:27.217Z,29.28
2024-01-21T12:49:27.349Z,29.28
2024-01-21T12:50:27.174Z,29.30
2024-01-21T12:51:27.390Z,29.30
2024-01-21T12:52:27.268Z,29.30
2024-01-21T12:53:27.231Z,29.32